Details From LFLL - Lyon Saint Exupery
To LEBL - Barcelona El Prat
Flight Number -
Tags Generated
Created
Modified
Stats Distance 297 nm / 551 km
Max Altitude 0 ft / 0 m
Waypoints 4
Social Downloads 7
Likes 0
Share VATSIM

Download

Looking for another format? Having issues loading an existing format? Contact us
Advertisement - Login to hide

Notes

Generated

Route

LFLL RW28 BCN LEBL

ID Type Via Altitude Latitude Longitude Leg Dist Tot Dist Heading (true) Name
O LFLL APT - 0 ft / 0 m 45.73499˚ 5.09188˚ - 0 nm - Lyon Saint Exupery
RW28 FIX - 0 ft / 0 m 43.32267˚ 3.36698˚ 162 nm 162 nm 208° / 206° -
BCN VOR - 0 ft / 0 m 41.30712˚ 2.10781˚ 133 nm 295 nm 205° / 204° BARCELONA VOR-DME
O LEBL APT - 0 ft / 0 m 41.28777˚ 2.08484˚ 1 nm 297 nm 222° / 222° -

Altitude Profile

Advertisement - Login to hide

Weather


0- 5 10 15 20 25 30 35+ Temperature / ° C

Clouds and Precipitation
Forecast for 2018-05-25 00:00 UTC. Updated 2 hours ago

Ground ~20,000 ft ~40,000 ft Winds

LFLL

Details ICAO LFLL (LYS)
Name Lyon Saint Exupery
Region France
Timezone Europe/Paris (UTC+2.0)
Stats Elevation 820 ft / 250 m (AMSL)
Location 45.725812° 5.090748°
Runways 2
Magnetic Variation 1.541° E

METAR

LFLL 250130Z 08003KT CAVOK 18/12 Q1016 NOSIG

Decode

TAF

TAF LFLL 242300Z 2500/2606 15005KT CAVOK= TAF LFPO 242300Z 2500/2606 36003KT CAVOK PROB30 TEMPO 2503/2507 3000 BR BKN005 BECMG 2508/2511 04006KT 9999 SCT040 TEMPO 2514/2523 SHRA SCT050CB PROB30 TEMPO 2515/2523 06015G25KT 2000 -TSRAGR BKN050CB

Decode

Departure Runways

ID Width Length Bearing (true) Bearing (mag) Surface Threshold Offset Overrun Length
18L 148 ft / 45 m 8,798 ft / 2,682 m 175.13° 173.59° Asphalt 33 ft / 10 m 52 ft / 16 m
18R 148 ft / 45 m 13,149 ft / 4,008 m 175.14° 173.60° Asphalt 16 ft / 5 m 203 ft / 62 m
36L 148 ft / 45 m 13,149 ft / 4,008 m 355.15° 353.61° Asphalt 36 ft / 11 m 151 ft / 46 m
36R 148 ft / 45 m 8,798 ft / 2,682 m 355.13° 353.59° Asphalt 26 ft / 8 m 52 ft / 16 m

LEBL

Details ICAO LEBL (BCN)
Name Barcelona - El Prat
Region Spain
Timezone Europe/Madrid (UTC+2.0)
Stats Elevation 14 ft / 4 m (AMSL)
Location 41.295108° 2.088030°
Runways 3
Magnetic Variation 0.870° E

METAR

LEBL 250130Z 03004KT 9999 FEW040 17/13 Q1016 NOSIG

Decode

TAF

TAF LEBL 242300Z 2500/2524 05007KT 9999 FEW040 TX23/2512Z TN17/2506Z TEMPO 2500/2506 34005KT PROB40 TEMPO 2503/2511 FEW050CB PROB30 TEMPO 2506/2510 TSRA SCT050CB BECMG 2507/2509 04015G30KT

Decode

Destination Runways

ID Width Length Bearing (true) Bearing (mag) Surface Threshold Offset Overrun Length
02 148 ft / 45 m 8,343 ft / 2,543 m 18.93° 18.06° Asphalt 0 ft / 0 m 348 ft / 106 m
07L 197 ft / 60 m 10,983 ft / 3,348 m 65.49° 64.62° Asphalt 1,411 ft / 430 m 1,161 ft / 354 m
07R 197 ft / 60 m 8,718 ft / 2,657 m 65.49° 64.62° Asphalt 0 ft / 0 m 207 ft / 63 m
20 148 ft / 45 m 8,343 ft / 2,543 m 198.93° 198.06° Asphalt 0 ft / 0 m 200 ft / 61 m
25L 197 ft / 60 m 8,718 ft / 2,657 m 245.51° 244.64° Asphalt 0 ft / 0 m 203 ft / 62 m
25R 197 ft / 60 m 10,983 ft / 3,348 m 245.51° 244.64° Asphalt 0 ft / 0 m 522 ft / 159 m

Approach Navaids

Runway Type Ident Frequency Range Bearing (true) Bearing (mag) Slope Elevation
02 Localiser BLT 108.75 MHz 25 nm / 46 km 19.10° 18.23° - 12 ft / 4 m (AMSL)
02 Glidescope BLT 108.75 MHz 20 nm / 37 km 20.00° 19.13° 3.00° 12 ft / 4 m (AMSL)
02 DME BLT 108.75 MHz 25 nm / 46 km - - - 12 ft / 4 m (AMSL)
07L Localiser QAA 110.30 MHz 18 nm / 33 km 65.52° 64.65° - 14 ft / 4 m (AMSL)
07L Glidescope QAA 110.30 MHz 10 nm / 19 km 65.50° 64.63° 3.00° 14 ft / 4 m (AMSL)
07L DME QAA 110.30 MHz 18 nm / 33 km - - - 13 ft / 4 m (AMSL)
07R Localiser BLE 110.75 MHz 18 nm / 33 km 65.51° 64.64° - 14 ft / 4 m (AMSL)
07R Glidescope BLE 110.75 MHz 10 nm / 19 km 65.50° 64.63° 3.00° 14 ft / 4 m (AMSL)
07R DME BLE 110.75 MHz 18 nm / 33 km - - - 30 ft / 9 m (AMSL)
25L Localiser BLW 111.50 MHz 18 nm / 33 km 245.48° 244.61° - 14 ft / 4 m (AMSL)
25L Glidescope BLW 111.50 MHz 10 nm / 19 km 245.50° 244.63° 3.00° 14 ft / 4 m (AMSL)
25L DME BLW 111.50 MHz 18 nm / 33 km - - - 14 ft / 4 m (AMSL)
25R Localiser BCA 109.50 MHz 18 nm / 33 km 245.47° 244.60° - 14 ft / 4 m (AMSL)
25R Glidescope BCA 109.50 MHz 10 nm / 19 km 245.50° 244.63° 3.00° 30 ft / 9 m (AMSL)
25R DME BCA 109.50 MHz 18 nm / 33 km - - - 30 ft / 9 m (AMSL)

Popular Alternatives